Time;durP1;ratioP1;P1;durP2;ratioP2;P2;SDS_P1;SDS_P2;PMS_P1;PMS_P2;Temp;Humidity;BMP_temperature;BMP_pressure;BME280_temperature;BME280_humidity;BME280_pressure;Samples;Min_cycle;Max_cycle;Signal;HPM_P1;HPM_P2
2023/03/29 00:00:37;;;;;;;14.77;6.93;;;8.10;99.90;;;;;;5109455;28;20199;-56
2023/03/29 00:03:05;;;;;;;13.27;7.55;;;8.10;99.90;;;;;;5105665;28;20525;-57
2023/03/29 00:05:33;;;;;;;15.63;7.78;;;8.10;99.90;;;;;;5108480;28;20055;-58
2023/03/29 00:08:02;;;;;;;16.50;7.47;;;8.10;99.90;;;;;;5108204;28;20047;-56
2023/03/29 00:10:32;;;;;;;13.13;7.63;;;8.10;99.90;;;;;;5090164;28;20039;-57
2023/03/29 00:13:01;;;;;;;12.23;6.95;;;8.10;99.90;;;;;;5071418;28;20051;-58
2023/03/29 00:15:28;;;;;;;17.63;6.90;;;8.10;99.90;;;;;;5107651;28;20056;-58
2023/03/29 00:17:56;;;;;;;12.55;6.88;;;8.10;99.90;;;;;;5090696;28;20045;-57
2023/03/29 00:20:24;;;;;;;14.10;6.75;;;8.10;99.90;;;;;;5090749;28;20048;-59
2023/03/29 00:22:52;;;;;;;12.50;6.40;;;8.10;99.90;;;;;;5108449;28;20035;-57
2023/03/29 00:25:20;;;;;;;14.98;6.78;;;8.10;99.90;;;;;;5092902;28;20047;-57
2023/03/29 00:27:47;;;;;;;14.88;6.95;;;8.00;99.90;;;;;;5091312;28;20050;-58
2023/03/29 00:30:18;;;;;;;11.70;7.03;;;8.00;99.90;;;;;;5108498;28;20519;-58
2023/03/29 00:32:48;;;;;;;14.73;7.72;;;7.90;99.90;;;;;;5090601;28;20430;-57
2023/03/29 00:35:16;;;;;;;11.13;6.57;;;7.80;99.90;;;;;;5093012;28;20044;-57
2023/03/29 00:37:46;;;;;;;14.75;6.63;;;7.70;99.90;;;;;;5098359;28;20058;-57
2023/03/29 00:40:14;;;;;;;15.93;6.53;;;7.70;99.90;;;;;;5073552;28;20509;-57
2023/03/29 00:42:45;;;;;;;10.60;6.35;;;7.60;99.90;;;;;;5089369;28;20039;-57
2023/03/29 00:45:17;;;;;;;9.85;5.53;;;7.50;99.90;;;;;;5106765;28;20044;-58
2023/03/29 00:47:55;;;;;;;11.15;6.13;;;7.40;99.90;;;;;;5108155;28;20340;-58
2023/03/29 00:50:32;;;;;;;19.20;7.45;;;7.30;99.90;;;;;;5107224;28;20051;-57
2023/03/29 00:53:05;;;;;;;12.73;6.13;;;7.20;99.90;;;;;;5107724;28;20043;-58
2023/03/29 00:55:38;;;;;;;13.27;7.25;;;7.20;99.90;;;;;;5083889;28;20047;-58
2023/03/29 00:58:08;;;;;;;14.55;7.05;;;7.00;99.90;;;;;;5108370;28;20486;-58
2023/03/29 01:00:44;;;;;;;16.52;7.00;;;7.00;99.90;;;;;;5107352;28;20043;-58
2023/03/29 01:03:23;;;;;;;14.32;7.80;;;6.90;99.90;;;;;;5070006;28;20058;-58
2023/03/29 01:06:06;;;;;;;16.38;8.30;;;6.90;99.90;;;;;;5086152;28;20075;-57
2023/03/29 01:08:41;;;;;;;18.13;9.18;;;6.80;99.90;;;;;;5096849;28;20406;-58
2023/03/29 01:11:38;;;;;;;18.88;9.93;;;6.90;99.90;;;;;;5108403;28;20044;-57
2023/03/29 01:14:34;;;;;;;20.52;10.88;;;6.90;99.90;;;;;;5099188;28;20051;-58
2023/03/29 01:17:03;;;;;;;19.60;9.98;;;7.00;99.90;;;;;;5069942;28;20071;-56
2023/03/29 01:19:46;;;;;;;24.85;11.38;;;7.10;99.90;;;;;;5079671;28;20043;-58
2023/03/29 01:22:27;;;;;;;28.73;12.70;;;7.20;99.90;;;;;;5108111;28;20056;-58
2023/03/29 01:25:05;;;;;;;24.67;12.15;;;7.30;99.90;;;;;;5101595;28;20051;-57
2023/03/29 01:27:54;;;;;;;23.52;12.65;;;7.40;99.90;;;;;;5088483;28;20123;-57
2023/03/29 01:30:33;;;;;;;24.00;12.35;;;7.50;99.90;;;;;;5089696;28;20058;-58
2023/03/29 01:33:10;;;;;;;22.83;11.23;;;7.50;99.90;;;;;;5090665;28;20030;-57
2023/03/29 01:35:45;;;;;;;25.38;12.88;;;7.60;99.90;;;;;;5089339;28;20052;-57
2023/03/29 01:38:19;;;;;;;23.55;11.88;;;7.60;99.90;;;;;;5072686;28;20403;-58
2023/03/29 01:40:47;;;;;;;23.83;10.75;;;7.50;99.90;;;;;;5090302;28;20052;-57
2023/03/29 01:43:32;;;;;;;19.60;10.52;;;7.50;99.90;;;;;;5089977;28;20036;-57
2023/03/29 01:46:06;;;;;;;23.88;11.02;;;7.50;99.90;;;;;;5080093;28;20044;-56
2023/03/29 01:48:40;;;;;;;24.27;10.95;;;7.50;99.90;;;;;;5090789;28;20392;-57
2023/03/29 01:51:16;;;;;;;21.73;10.48;;;7.50;99.90;;;;;;5089377;28;20052;-57
2023/03/29 01:53:50;;;;;;;24.17;10.70;;;7.50;99.90;;;;;;5083633;28;20041;-57
2023/03/29 01:56:21;;;;;;;24.77;12.38;;;7.60;99.90;;;;;;5082244;28;20037;-57
2023/03/29 01:58:55;;;;;;;28.02;11.02;;;7.40;99.90;;;;;;5072839;28;20040;-58
2023/03/29 02:01:27;;;;;;;24.85;10.40;;;7.60;99.90;;;;;;5073204;28;20045;-57
2023/03/29 02:04:01;;;;;;;27.95;12.38;;;7.60;99.90;;;;;;5094364;28;20032;-58
2023/03/29 02:06:34;;;;;;;25.13;11.23;;;7.50;99.90;;;;;;5091049;28;20059;-57
2023/03/29 02:09:03;;;;;;;25.20;11.30;;;7.60;99.90;;;;;;5094353;28;20036;-57
2023/03/29 02:11:32;;;;;;;25.60;12.40;;;7.50;99.90;;;;;;5093547;28;20047;-57
2023/03/29 02:14:01;;;;;;;;;;;7.60;99.90;;;;;;5094689;28;20059;-57
2023/03/29 02:16:35;;;;;;;26.23;10.98;;;7.60;99.90;;;;;;5089709;28;19927;-58
2023/03/29 02:19:04;;;;;;;27.70;11.57;;;7.60;99.90;;;;;;5094590;28;20040;-57
2023/03/29 02:21:52;;;;;;;28.95;11.75;;;7.70;99.90;;;;;;5094197;28;20048;-57
2023/03/29 02:24:25;;;;;;;29.00;12.75;;;7.70;99.90;;;;;;5094512;28;20494;-58
2023/03/29 02:26:52;;;;;;;31.73;12.68;;;7.60;99.90;;;;;;5072730;28;20045;-58
2023/03/29 02:29:21;;;;;;;28.73;12.20;;;7.80;99.90;;;;;;5074063;28;20314;-58
2023/03/29 02:31:57;;;;;;;31.93;12.63;;;7.80;99.90;;;;;;5073909;28;20040;-56
2023/03/29 02:34:36;;;;;;;27.95;12.38;;;7.90;99.90;;;;;;5080643;28;20079;-57
2023/03/29 02:37:10;;;;;;;27.45;11.93;;;8.00;99.90;;;;;;5092686;28;20059;-58
2023/03/29 02:39:39;;;;;;;31.33;11.10;;;8.00;99.90;;;;;;5092788;28;20057;-56
2023/03/29 02:42:08;;;;;;;25.73;11.13;;;8.00;99.90;;;;;;5092920;28;20040;-57
2023/03/29 02:44:40;;;;;;;26.92;11.07;;;8.10;99.90;;;;;;5109759;28;20040;-58
2023/03/29 02:47:42;;;;;;;26.83;11.32;;;8.10;99.90;;;;;;5101563;28;20037;-59
2023/03/29 02:50:10;;;;;;;27.88;11.20;;;8.20;99.90;;;;;;5080716;28;20040;-56
2023/03/29 02:52:44;;;;;;;26.23;11.63;;;8.30;99.90;;;;;;5093380;28;20052;-58
2023/03/29 02:55:16;;;;;;;29.02;12.23;;;8.30;99.90;;;;;;5087289;28;20048;-58
2023/03/29 02:57:43;;;;;;;18.13;9.80;;;8.30;99.90;;;;;;5073667;28;20396;-58
2023/03/29 03:00:13;;;;;;;25.98;11.30;;;8.30;99.90;;;;;;5086611;28;20048;-58
2023/03/29 03:02:41;;;;;;;34.20;12.15;;;8.30;99.90;;;;;;5092347;28;20071;-58
2023/03/29 03:05:10;;;;;;;28.80;11.90;;;8.30;99.90;;;;;;5088811;28;20499;-56
2023/03/29 03:07:39;;;;;;;26.52;12.10;;;8.30;99.90;;;;;;5071830;28;20293;-57
2023/03/29 03:10:09;;;;;;;31.60;12.35;;;8.30;99.90;;;;;;5073590;28;20051;-56
2023/03/29 03:12:37;;;;;;;30.48;13.10;;;8.30;99.90;;;;;;5088593;28;20055;-57
2023/03/29 03:15:06;;;;;;;31.95;13.38;;;8.30;99.90;;;;;;5076740;28;20476;-57
2023/03/29 03:17:38;;;;;;;29.27;11.82;;;8.40;99.90;;;;;;5092145;28;20044;-57
2023/03/29 03:20:11;;;;;;;26.70;11.55;;;8.40;99.90;;;;;;5109171;28;20036;-58
2023/03/29 03:22:47;;;;;;;27.88;12.25;;;8.40;99.90;;;;;;5108839;28;20040;-56
2023/03/29 03:25:18;;;;;;;26.02;11.75;;;8.40;99.90;;;;;;5092819;28;20047;-58
2023/03/29 03:27:49;;;;;;;25.60;12.43;;;8.50;99.90;;;;;;5108843;28;20040;-58
2023/03/29 03:30:20;;;;;;;30.15;12.32;;;8.50;99.90;;;;;;5108967;28;20070;-58
2023/03/29 03:33:06;;;;;;;33.92;12.93;;;8.50;99.90;;;;;;5092966;28;20040;-58
2023/03/29 03:35:55;;;;;;;28.83;11.15;;;8.50;99.90;;;;;;5084178;28;20040;-58
2023/03/29 03:38:24;;;;;;;27.92;11.55;;;8.60;99.90;;;;;;5089888;28;20037;-57
2023/03/29 03:40:58;;;;;;;33.38;12.82;;;8.60;99.90;;;;;;5078393;28;20048;-58
2023/03/29 03:43:27;;;;;;;28.42;11.85;;;8.60;99.90;;;;;;5105405;28;20529;-58
2023/03/29 03:45:56;;;;;;;;;;;8.60;99.90;;;;;;5088414;28;20044;-58
2023/03/29 03:48:25;;;;;;;27.35;11.98;;;8.60;99.90;;;;;;5073809;28;19927;-58
2023/03/29 03:50:58;;;;;;;37.40;12.00;;;8.60;99.90;;;;;;5086939;28;20052;-58
2023/03/29 03:53:32;;;;;;;35.53;13.25;;;8.60;99.90;;;;;;5087750;28;20506;-57
2023/03/29 03:56:28;;;;;;;30.13;12.55;;;8.60;99.90;;;;;;5055649;28;20495;-56
2023/03/29 03:59:02;;;;;;;35.75;12.25;;;8.60;99.90;;;;;;5071241;28;20036;-57
2023/03/29 04:01:36;;;;;;;31.42;11.48;;;8.60;99.90;;;;;;5070951;28;20368;-57
2023/03/29 04:04:13;;;;;;;33.53;12.82;;;8.60;99.90;;;;;;5083935;28;20036;-56
2023/03/29 04:06:51;;;;;;;35.22;13.50;;;8.60;99.90;;;;;;5108070;28;20391;-56
2023/03/29 04:09:25;;;;;;;35.20;13.68;;;8.60;99.90;;;;;;5092302;28;20044;-57
2023/03/29 04:12:10;;;;;;;35.97;13.70;;;8.60;99.90;;;;;;5097915;28;20632;-57
2023/03/29 04:14:39;;;;;;;32.13;12.40;;;8.60;99.90;;;;;;5107451;28;20522;-57
2023/03/29 04:17:13;;;;;;;35.45;14.02;;;8.60;99.90;;;;;;5108061;28;20399;-57
2023/03/29 04:19:57;;;;;;;32.03;14.15;;;8.60;99.90;;;;;;5107908;28;20407;-57
2023/03/29 04:22:27;;;;;;;43.35;13.82;;;8.60;99.90;;;;;;5107766;28;20043;-57
2023/03/29 04:24:55;;;;;;;32.78;12.85;;;8.60;99.90;;;;;;5107521;28;20040;-58
2023/03/29 04:27:35;;;;;;;37.88;12.68;;;8.70;99.90;;;;;;5092236;28;20040;-57
2023/03/29 04:30:09;;;;;;;41.60;14.07;;;8.70;99.90;;;;;;5090870;28;20048;-57
2023/03/29 04:33:01;;;;;;;32.10;13.05;;;8.70;99.90;;;;;;5090203;28;20036;-58
2023/03/29 04:35:30;;;;;;;37.13;14.02;;;8.70;99.90;;;;;;5073616;28;20407;-58
2023/03/29 04:37:58;;;;;;;32.83;12.95;;;8.70;99.90;;;;;;5090519;28;20051;-58
2023/03/29 04:40:26;;;;;;;31.98;13.05;;;8.80;99.90;;;;;;5087163;28;20036;-58
2023/03/29 04:43:22;;;;;;;32.95;12.57;;;8.80;99.90;;;;;;5066613;28;20512;-56
2023/03/29 04:46:07;;;;;;;37.78;14.07;;;8.80;99.90;;;;;;5090318;28;20392;-58
2023/03/29 04:48:57;;;;;;;33.35;13.43;;;8.90;99.90;;;;;;5070541;28;20047;-58
2023/03/29 04:51:39;;;;;;;31.17;12.40;;;;;;;;;;5073030;28;20044;-58
2023/03/29 04:54:11;;;;;;;40.40;13.60;;;8.90;99.90;;;;;;5083611;28;20040;-57
2023/03/29 04:56:59;;;;;;;40.55;13.07;;;9.00;99.90;;;;;;5067821;28;20044;-57
2023/03/29 04:59:53;;;;;;;40.13;13.88;;;9.00;99.90;;;;;;5065515;28;20065;-58
2023/03/29 05:02:46;;;;;;;30.35;12.98;;;9.00;99.90;;;;;;5073325;28;20055;-58
2023/03/29 05:05:15;;;;;;;40.70;12.55;;;9.10;99.90;;;;;;5082815;28;20044;-57
2023/03/29 05:07:44;;;;;;;34.38;12.65;;;9.10;99.90;;;;;;5076433;28;20051;-59
2023/03/29 05:10:13;;;;;;;39.95;12.45;;;9.10;99.90;;;;;;5063105;28;20071;-58
2023/03/29 05:12:45;;;;;;;31.15;11.48;;;9.20;99.90;;;;;;5077622;28;20040;-58
2023/03/29 05:15:13;;;;;;;31.00;11.40;;;9.20;99.90;;;;;;5072065;28;20044;-58
2023/03/29 05:17:41;;;;;;;33.47;12.23;;;9.20;99.90;;;;;;5049717;28;20396;-58
2023/03/29 05:20:14;;;;;;;27.40;11.35;;;9.20;99.90;;;;;;5082220;28;20040;-58
2023/03/29 05:22:44;;;;;;;33.35;11.95;;;9.20;99.90;;;;;;5075260;28;20055;-58
2023/03/29 05:25:21;;;;;;;27.48;10.90;;;9.20;99.90;;;;;;5079714;28;20067;-59
2023/03/29 05:27:49;;;;;;;31.35;11.68;;;9.20;99.90;;;;;;5087909;28;20040;-58
2023/03/29 05:30:17;;;;;;;26.73;10.70;;;9.30;99.90;;;;;;5085538;28;20508;-57
2023/03/29 05:33:04;;;;;;;28.95;9.63;;;9.30;99.90;;;;;;5089532;28;20075;-59
2023/03/29 05:35:34;;;;;;;25.15;10.02;;;9.30;99.90;;;;;;5090241;28;20440;-58
2023/03/29 05:38:05;;;;;;;29.20;10.52;;;9.40;99.90;;;;;;5088879;28;20048;-58
2023/03/29 05:40:34;;;;;;;28.80;10.63;;;9.40;99.90;;;;;;5090022;28;20380;-57
2023/03/29 05:43:19;;;;;;;26.77;10.63;;;9.40;99.90;;;;;;5086442;28;20422;-58
2023/03/29 05:45:47;;;;;;;27.45;10.63;;;9.40;99.90;;;;;;5068631;28;20439;-57
2023/03/29 05:48:16;;;;;;;29.20;11.07;;;9.40;99.90;;;;;;5081112;28;20047;-57
2023/03/29 05:50:48;;;;;;;32.53;11.30;;;9.40;99.90;;;;;;5069428;28;20496;-58
2023/03/29 05:53:22;;;;;;;23.42;10.25;;;9.50;99.90;;;;;;5076387;28;20403;-58
2023/03/29 05:55:50;;;;;;;26.58;10.80;;;9.50;99.90;;;;;;5080676;28;20052;-57
2023/03/29 05:58:20;;;;;;;28.33;10.38;;;9.50;99.90;;;;;;5069043;28;20067;-58
2023/03/29 06:00:49;;;;;;;27.33;10.82;;;9.50;99.90;;;;;;5068845;28;20056;-58
2023/03/29 06:03:33;;;;;;;25.80;9.93;;;9.40;99.90;;;;;;5078107;28;20048;-58
2023/03/29 06:06:02;;;;;;;28.73;10.45;;;9.50;99.90;;;;;;5088448;28;20053;-58
2023/03/29 06:08:33;;;;;;;29.98;10.52;;;9.50;99.90;;;;;;5085618;28;20483;-56
2023/03/29 06:11:12;;;;;;;25.02;10.30;;;9.50;99.90;;;;;;5071438;28;20492;-57
2023/03/29 06:14:03;;;;;;;30.50;9.70;;;9.50;99.90;;;;;;5066239;28;20056;-57
2023/03/29 06:16:31;;;;;;;28.75;10.48;;;9.50;99.90;;;;;;5089376;28;20052;-58
2023/03/29 06:18:59;;;;;;;24.92;9.85;;;9.50;99.90;;;;;;5090271;28;20044;-59
2023/03/29 06:21:30;;;;;;;34.50;10.95;;;9.50;99.90;;;;;;5072175;28;20520;-58
2023/03/29 06:23:59;;;;;;;24.23;10.25;;;9.60;99.90;;;;;;5101709;28;20040;-58
2023/03/29 06:26:32;;;;;;;26.00;9.93;;;9.60;99.90;;;;;;5069532;28;20048;-57
2023/03/29 06:28:59;;;;;;;33.65;11.30;;;9.60;99.90;;;;;;5070415;28;20052;-58
2023/03/29 06:31:28;;;;;;;29.70;11.63;;;9.70;99.90;;;;;;5092182;28;20047;-58
2023/03/29 06:33:57;;;;;;;;;;;9.60;99.90;;;;;;5075990;28;20052;-58
2023/03/29 06:36:53;;;;;;;29.02;9.13;;;9.70;99.90;;;;;;5089273;28;19935;-58
2023/03/29 06:39:22;;;;;;;24.85;9.40;;;9.70;99.90;;;;;;5088808;28;20043;-58
2023/03/29 06:42:08;;;;;;;24.67;9.77;;;9.70;99.90;;;;;;5077294;28;20044;-56
2023/03/29 06:45:19;;;;;;;33.20;9.93;;;9.80;99.90;;;;;;5057484;28;20057;-57
2023/03/29 06:47:53;;;;;;;27.45;9.77;;;9.80;99.90;;;;;;5092866;28;20357;-59
2023/03/29 06:50:24;;;;;;;27.65;9.75;;;9.80;99.90;;;;;;5089174;28;20102;-57
2023/03/29 06:53:14;;;;;;;28.80;10.18;;;9.80;99.90;;;;;;5089190;28;20052;-57
2023/03/29 06:55:44;;;;;;;25.30;9.68;;;9.90;99.90;;;;;;5085656;28;20051;-58
2023/03/29 06:58:39;;;;;;;24.92;8.10;;;9.90;99.90;;;;;;5105556;28;20048;-58
2023/03/29 07:01:27;;;;;;;21.08;8.68;;;10.00;99.90;;;;;;5087170;28;20494;-58
2023/03/29 07:04:16;;;;;;;25.10;8.10;;;10.00;99.90;;;;;;5058167;28;20063;-58
2023/03/29 07:07:18;;;;;;;19.13;8.25;;;10.00;99.90;;;;;;5080426;28;20059;-58
2023/03/29 07:09:54;;;;;;;22.85;7.97;;;10.00;99.90;;;;;;5069022;28;20526;-58
2023/03/29 07:13:01;;;;;;;27.80;8.73;;;10.10;99.90;;;;;;5081506;28;20053;-58
2023/03/29 07:15:28;;;;;;;24.77;8.32;;;10.10;99.90;;;;;;5074922;28;20509;-58
2023/03/29 07:18:16;;;;;;;24.35;8.80;;;10.10;99.90;;;;;;5074130;28;20044;-58
2023/03/29 07:20:44;;;;;;;22.92;7.60;;;10.10;99.90;;;;;;5090084;28;20048;-59
2023/03/29 07:23:12;;;;;;;17.17;7.10;;;10.10;99.90;;;;;;5101682;28;20621;-59
2023/03/29 07:25:39;;;;;;;29.05;8.55;;;10.10;99.90;;;;;;5104801;28;20055;-59
2023/03/29 07:28:07;;;;;;;23.55;6.90;;;10.10;99.90;;;;;;5075863;28;20053;-57
2023/03/29 07:30:36;;;;;;;21.20;6.75;;;10.20;99.90;;;;;;5074454;28;20047;-58
2023/03/29 07:33:23;;;;;;;16.10;6.32;;;10.20;99.90;;;;;;5069983;28;20045;-57
2023/03/29 07:35:57;;;;;;;23.65;6.45;;;10.20;99.90;;;;;;5073793;28;20057;-59
2023/03/29 07:38:26;;;;;;;25.13;6.10;;;10.20;99.90;;;;;;5099505;28;20044;-60
2023/03/29 07:41:09;;;;;;;20.67;5.30;;;10.30;99.90;;;;;;5078494;28;20467;-59
2023/03/29 07:43:50;;;;;;;17.73;5.15;;;10.30;99.90;;;;;;5104232;28;20051;-59
2023/03/29 07:46:23;;;;;;;19.13;5.57;;;10.40;99.90;;;;;;5088116;28;20052;-57
2023/03/29 07:48:52;;;;;;;15.80;5.38;;;10.40;99.90;;;;;;5103181;28;20047;-59
2023/03/29 07:51:20;;;;;;;18.98;5.80;;;10.40;99.90;;;;;;5091522;28;20040;-59
2023/03/29 07:53:51;;;;;;;19.17;5.28;;;10.40;99.90;;;;;;5107506;28;20050;-58
2023/03/29 07:56:46;;;;;;;16.00;5.25;;;10.40;99.90;;;;;;5105746;28;20052;-58
2023/03/29 07:59:15;;;;;;;20.42;5.72;;;10.40;99.90;;;;;;5098996;28;20043;-59
2023/03/29 08:01:45;;;;;;;13.38;4.68;;;10.40;99.90;;;;;;5091021;28;20529;-59
2023/03/29 08:04:25;;;;;;;13.43;4.28;;;10.50;99.90;;;;;;5087979;28;20044;-59
2023/03/29 08:07:12;;;;;;;14.73;4.70;;;10.40;99.90;;;;;;5090081;28;20040;-59
2023/03/29 08:09:51;;;;;;;11.48;3.85;;;10.50;99.90;;;;;;5109446;28;20593;-57
2023/03/29 08:12:23;;;;;;;12.55;4.05;;;10.50;99.90;;;;;;5082307;28;20040;-58
2023/03/29 08:14:52;;;;;;;19.30;4.32;;;10.50;99.90;;;;;;5074936;28;20040;-58
2023/03/29 08:17:28;;;;;;;16.90;4.47;;;10.50;99.90;;;;;;5080199;28;20047;-58
2023/03/29 08:19:57;;;;;;;22.40;4.20;;;10.50;99.90;;;;;;5090978;28;20047;-57
2023/03/29 08:22:24;;;;;;;11.30;3.40;;;10.50;99.90;;;;;;5108605;28;20292;-58
2023/03/29 08:25:06;;;;;;;16.35;4.53;;;10.60;99.90;;;;;;5108524;28;20050;-58
2023/03/29 08:27:39;;;;;;;20.30;4.88;;;10.60;99.90;;;;;;5084246;28;20058;-59
2023/03/29 08:30:10;;;;;;;10.95;4.20;;;10.60;99.90;;;;;;5072907;28;20051;-59
2023/03/29 08:32:39;;;;;;;13.48;5.00;;;10.60;99.90;;;;;;5089473;28;20048;-58
2023/03/29 08:35:09;;;;;;;10.95;3.63;;;10.60;99.90;;;;;;5108792;28;20054;-58
2023/03/29 08:37:51;;;;;;;12.35;3.97;;;10.70;99.90;;;;;;5083874;28;20491;-59
2023/03/29 08:40:23;;;;;;;18.05;4.00;;;10.70;99.90;;;;;;5088162;28;20510;-57
2023/03/29 08:43:41;;;;;;;16.30;4.90;;;10.60;99.90;;;;;;5097683;28;20047;-58
2023/03/29 08:46:30;;;;;;;20.65;5.00;;;10.70;99.90;;;;;;5075238;28;20051;-57
2023/03/29 08:49:24;;;;;;;11.23;4.15;;;10.60;99.90;;;;;;5083721;28;20558;-57
2023/03/29 08:51:58;;;;;;;9.60;4.13;;;10.70;99.90;;;;;;5069782;28;20043;-58
2023/03/29 08:54:39;;;;;;;9.93;3.70;;;10.70;99.90;;;;;;5083773;28;20040;-58
2023/03/29 08:57:17;;;;;;;13.70;3.80;;;10.70;99.90;;;;;;5094866;28;20062;-58
2023/03/29 08:59:52;;;;;;;12.23;4.22;;;10.70;99.90;;;;;;5083957;28;20054;-57
2023/03/29 09:02:24;;;;;;;9.02;3.75;;;10.80;99.90;;;;;;5073242;28;20035;-58
2023/03/29 09:05:07;;;;;;;11.55;3.75;;;10.80;99.90;;;;;;5081010;28;20043;-58
2023/03/29 09:07:43;;;;;;;12.70;4.82;;;10.90;99.90;;;;;;5084680;28;20421;-59
2023/03/29 09:10:16;;;;;;;11.95;4.65;;;10.90;99.90;;;;;;5070830;28;20106;-58
2023/03/29 09:13:00;;;;;;;11.57;4.25;;;11.00;99.90;;;;;;5081543;28;20043;-58
2023/03/29 09:15:53;;;;;;;11.52;4.63;;;11.00;99.90;;;;;;5089061;28;20074;-59
2023/03/29 09:19:01;;;;;;;9.70;3.50;;;11.00;99.90;;;;;;5077851;28;20051;-58
2023/03/29 09:21:48;;;;;;;12.88;3.10;;;11.00;99.90;;;;;;5070268;28;20372;-58
2023/03/29 09:24:26;;;;;;;14.43;3.63;;;11.10;99.90;;;;;;5087359;28;20050;-58
2023/03/29 09:27:04;;;;;;;14.32;3.97;;;11.10;99.90;;;;;;5092913;28;20040;-58
2023/03/29 09:30:04;;;;;;;7.70;3.00;;;11.10;99.90;;;;;;5108366;28;20503;-58
2023/03/29 09:33:04;;;;;;;9.63;3.40;;;11.10;99.90;;;;;;5052669;28;20040;-58
2023/03/29 09:36:18;;;;;;;10.48;3.58;;;11.10;99.90;;;;;;5093866;28;20203;-58
2023/03/29 09:38:53;;;;;;;6.10;2.40;;;11.10;99.90;;;;;;5076529;28;20063;-56
2023/03/29 09:41:49;;;;;;;13.95;2.92;;;11.10;99.90;;;;;;5070288;28;20054;-58
2023/03/29 09:44:21;;;;;;;8.63;3.20;;;11.10;99.90;;;;;;5082230;28;20052;-57
2023/03/29 09:47:14;;;;;;;14.80;4.35;;;11.00;99.90;;;;;;5089130;28;20036;-58
2023/03/29 09:49:46;;;;;;;7.85;2.90;;;11.10;99.90;;;;;;5086498;28;20048;-58
2023/03/29 09:52:16;;;;;;;8.20;3.47;;;11.10;99.90;;;;;;5069499;28;20098;-58
2023/03/29 09:54:53;;;;;;;13.82;3.42;;;11.10;99.90;;;;;;5105189;28;20043;-58
2023/03/29 09:57:49;;;;;;;8.50;3.50;;;11.00;99.90;;;;;;5107152;28;20050;-58
2023/03/29 10:00:21;;;;;;;8.57;3.92;;;11.10;99.90;;;;;;5090146;28;20404;-58
2023/03/29 10:02:55;;;;;;;13.57;3.25;;;11.00;99.90;;;;;;5100758;28;20369;-58
2023/03/29 10:05:36;;;;;;;6.10;2.90;;;11.10;99.90;;;;;;5088215;28;20055;-57
2023/03/29 10:08:18;;;;;;;10.60;2.55;;;11.10;99.90;;;;;;5073318;28;20051;-57
2023/03/29 10:10:47;;;;;;;6.15;2.75;;;11.20;99.90;;;;;;5086480;28;20048;-58
2023/03/29 10:13:41;;;;;;;11.88;2.85;;;11.10;99.90;;;;;;5094038;28;20043;-58
2023/03/29 10:16:24;;;;;;;8.63;2.97;;;11.10;99.90;;;;;;5089356;28;20040;-58
2023/03/29 10:18:53;;;;;;;4.78;2.55;;;11.10;99.90;;;;;;5095257;28;20055;-57
2023/03/29 10:21:22;;;;;;;10.55;2.58;;;11.10;99.90;;;;;;5091048;28;20047;-58
2023/03/29 10:23:58;;;;;;;6.32;2.70;;;11.10;99.90;;;;;;5107012;28;20044;-58
2023/03/29 10:26:31;;;;;;;8.07;3.05;;;11.10;99.90;;;;;;5090930;28;20044;-59
2023/03/29 10:29:05;;;;;;;8.18;3.65;;;11.10;99.90;;;;;;5103037;28;20054;-59
2023/03/29 10:31:36;;;;;;;8.13;3.22;;;11.10;99.90;;;;;;5108902;28;20055;-59
2023/03/29 10:34:05;;;;;;;6.35;4.00;;;11.10;99.90;;;;;;5109965;28;20070;-58
2023/03/29 10:36:33;;;;;;;7.55;3.00;;;11.10;99.90;;;;;;5110501;28;20051;-58
2023/03/29 10:39:03;;;;;;;14.25;4.22;;;11.10;99.90;;;;;;5094823;28;20483;-58
2023/03/29 10:41:34;;;;;;;4.95;3.15;;;11.20;99.90;;;;;;5090924;28;20044;-58
2023/03/29 10:44:02;;;;;;;12.20;4.45;;;11.10;99.90;;;;;;5106783;28;20414;-56
2023/03/29 10:46:38;;;;;;;8.57;3.30;;;11.10;99.90;;;;;;5109554;28;20541;-58
2023/03/29 10:49:24;;;;;;;5.00;2.50;;;11.10;99.90;;;;;;5106932;28;20050;-58
2023/03/29 10:51:52;;;;;;;6.18;2.60;;;11.20;99.90;;;;;;5091228;28;20051;-58
2023/03/29 10:54:22;;;;;;;3.00;1.92;;;11.20;99.90;;;;;;5090356;28;20040;-57
2023/03/29 10:56:57;;;;;;;4.20;2.47;;;11.20;99.90;;;;;;5072361;28;20039;-56
2023/03/29 10:59:38;;;;;;;5.80;2.67;;;11.20;99.90;;;;;;5087669;28;20058;-57
2023/03/29 11:02:12;;;;;;;5.18;2.78;;;11.30;99.90;;;;;;5090795;28;20394;-57
2023/03/29 11:05:11;;;;;;;3.85;1.85;;;11.30;99.90;;;;;;5102834;28;20073;-58
2023/03/29 11:08:00;;;;;;;5.47;2.10;;;11.40;99.90;;;;;;5091197;28;20047;-58
2023/03/29 11:10:45;;;;;;;3.90;2.20;;;11.40;99.90;;;;;;5110650;28;20055;-57
2023/03/29 11:13:33;;;;;;;2.95;1.63;;;11.50;99.90;;;;;;5109956;28;20059;-57
2023/03/29 11:16:10;;;;;;;6.15;1.85;;;11.60;99.90;;;;;;5099915;28;20040;-57
2023/03/29 11:18:38;;;;;;;3.60;1.88;;;11.60;99.90;;;;;;5105689;28;20054;-58
2023/03/29 11:21:38;;;;;;;2.70;1.70;;;11.60;99.90;;;;;;5110297;28;20048;-57
2023/03/29 11:24:06;;;;;;;;;;;11.60;99.90;;;;;;5107773;28;20051;-57
2023/03/29 11:26:59;;;;;;;4.95;2.42;;;11.60;99.90;;;;;;5107255;28;19924;-57
2023/03/29 11:29:32;;;;;;;5.28;2.15;;;11.60;99.90;;;;;;5108118;28;20419;-57
2023/03/29 11:32:12;;;;;;;4.15;2.00;;;11.50;99.90;;;;;;5109114;28;22190;-57
2023/03/29 11:34:56;;;;;;;5.75;1.63;;;11.50;99.90;;;;;;5105824;28;20612;-57
2023/03/29 11:37:32;;;;;;;3.88;1.95;;;10.80;99.90;;;;;;5106542;28;20059;-58
2023/03/29 11:40:20;;;;;;;2.92;2.10;;;11.50;99.90;;;;;;5089618;28;20055;-57
2023/03/29 11:42:53;;;;;;;7.57;2.13;;;11.50;99.90;;;;;;5101394;28;20039;-55
2023/03/29 11:45:38;;;;;;;4.93;2.30;;;11.50;99.90;;;;;;5091531;28;20062;-58
2023/03/29 11:48:16;;;;;;;3.28;1.65;;;11.50;99.90;;;;;;5105912;28;20475;-58
2023/03/29 11:51:16;;;;;;;6.68;2.05;;;11.50;99.90;;;;;;5109685;28;20395;-57
2023/03/29 11:54:02;;;;;;;4.07;2.35;;;11.50;99.90;;;;;;5109411;28;20401;-58
2023/03/29 11:56:43;;;;;;;3.20;2.30;;;11.50;99.90;;;;;;5108389;28;20513;-58
2023/03/29 11:59:21;;;;;;;2.88;1.70;;;11.50;99.90;;;;;;5092350;28;20483;-57
2023/03/29 12:01:57;;;;;;;5.07;2.22;;;11.60;99.90;;;;;;5095912;28;20039;-57
2023/03/29 12:04:43;;;;;;;2.65;1.75;;;11.60;99.90;;;;;;5108560;28;20214;-58
2023/03/29 12:07:35;;;;;;;8.30;1.88;;;11.70;99.90;;;;;;5109116;28;20043;-57
2023/03/29 12:10:16;;;;;;;3.83;1.70;;;11.70;99.90;;;;;;5088878;28;20105;-56
2023/03/29 12:13:00;;;;;;;3.80;1.50;;;11.70;99.90;;;;;;5107927;28;20054;-56
2023/03/29 12:15:51;;;;;;;2.70;1.23;;;14.80;99.90;;;;;;5108680;28;20044;-57
2023/03/29 12:18:41;;;;;;;1.20;1.10;;;11.80;99.90;;;;;;5098480;28;20050;-56
2023/03/29 12:21:19;;;;;;;1.33;1.23;;;11.90;99.90;;;;;;5090922;28;20047;-58
2023/03/29 12:23:50;;;;;;;3.83;1.80;;;11.90;99.90;;;;;;5092990;28;20047;-58
2023/03/29 12:26:52;;;;;;;3.83;1.60;;;11.90;99.90;;;;;;5088530;28;20044;-59
2023/03/29 12:29:35;;;;;;;3.97;1.80;;;12.00;99.90;;;;;;5088590;28;20498;-59
2023/03/29 12:32:25;;;;;;;2.13;1.92;;;12.00;99.90;;;;;;5103747;28;20039;-58
2023/03/29 12:36:03;;;;;;;2.75;1.83;;;12.10;99.90;;;;;;5099989;28;20052;-58
2023/03/29 12:39:03;;;;;;;1.52;1.23;;;14.70;99.90;;;;;;4999045;28;20053;-59
2023/03/29 12:41:50;;;;;;;2.35;1.20;;;12.30;99.90;;;;;;4992024;28;20117;-58
2023/03/29 12:44:50;;;;;;;1.73;1.17;;;12.40;99.90;;;;;;5067496;28;20056;-60
2023/03/29 12:47:26;;;;;;;1.60;1.05;;;12.70;99.90;;;;;;5107891;28;20046;-60
2023/03/29 12:49:56;;;;;;;1.25;1.15;;;12.70;99.90;;;;;;5088577;28;20043;-58
2023/03/29 12:52:31;;;;;;;2.85;1.13;;;12.80;99.90;;;;;;5087905;28;20442;-58
2023/03/29 12:55:03;;;;;;;1.75;1.08;;;12.80;99.90;;;;;;5096225;28;20032;-58
2023/03/29 12:57:43;;;;;;;1.08;1.02;;;12.80;99.90;;;;;;5093801;28;20051;-59
2023/03/29 13:00:19;;;;;;;2.03;1.33;;;12.80;99.90;;;;;;5105870;28;20390;-59
2023/03/29 13:03:03;;;;;;;1.92;1.40;;;12.80;99.90;;;;;;5103489;28;20646;-58
2023/03/29 13:05:35;;;;;;;1.42;1.33;;;13.00;99.90;;;;;;5105340;28;20044;-58
2023/03/29 13:08:26;;;;;;;2.38;1.38;;;13.00;99.90;;;;;;5086243;28;20044;-59
2023/03/29 13:10:55;;;;;;;2.25;1.55;;;13.00;99.90;;;;;;5097006;28;20040;-57
2023/03/29 13:13:28;;;;;;;1.70;1.60;;;13.00;99.90;;;;;;5095914;28;20450;-57
2023/03/29 13:16:17;;;;;;;1.40;1.30;;;13.00;99.90;;;;;;5103453;28;20513;-58
2023/03/29 13:18:59;;;;;;;3.97;1.38;;;13.00;99.90;;;;;;5101480;28;20056;-59
2023/03/29 13:22:10;;;;;;;3.03;2.38;;;13.00;99.90;;;;;;5103124;28;20050;-59
2023/03/29 13:25:07;;;;;;;2.75;1.40;;;13.00;99.90;;;;;;5022106;28;20193;-57
2023/03/29 13:27:47;;;;;;;2.05;1.80;;;13.00;99.90;;;;;;5011376;28;20060;-56
2023/03/29 13:30:52;;;;;;;1.40;1.30;;;13.00;99.90;;;;;;5068901;28;20052;-59
2023/03/29 13:33:40;;;;;;;2.90;2.42;;;13.00;99.90;;;;;;5097701;28;20044;-57
2023/03/29 13:36:46;;;;;;;2.53;1.45;;;13.00;99.90;;;;;;5108265;28;20487;-57